Time;durP1;ratioP1;P1;durP2;ratioP2;P2;SDS_P1;SDS_P2;PMS_P1;PMS_P2;Temp;Humidity;BMP_temperature;BMP_pressure;BME280_temperature;BME280_humidity;BME280_pressure;Samples;Min_cycle;Max_cycle;Signal;HPM_P1;HPM_P2
2024/01/08 00:00:45;;;;;;;;;;;;;;;;;;4976164;28;19918;-68
2024/01/08 00:03:11;;;;;;;;;;;;;;;;;;4954595;28;19917;-70
2024/01/08 00:05:39;;;;;;;;;;;;;;;;;;4972952;28;20395;-70
2024/01/08 00:08:07;;;;;;;;;;;;;;;;;;4958559;28;20126;-69
2024/01/08 00:10:34;;;;;;;;;;;;;;;;;;4973975;28;20361;-68
2024/01/08 00:13:00;;;;;;;;;;;;;;;;;;4992086;28;19932;-73
2024/01/08 00:15:30;;;;;;;;;;;;;;;;;;4956859;28;19927;-69
2024/01/08 00:17:55;;;;;;;;;;;;;;;;;;4992739;28;19920;-70
2024/01/08 00:20:23;;;;;;;;;;;;;;;;;;4968645;28;20071;-69
2024/01/08 00:22:51;;;;;;;;;;;;;;;;;;4954401;28;19922;-69
2024/01/08 00:25:21;;;;;;;;;;;;;;;;;;4989361;28;20048;-68
2024/01/08 00:27:52;;;;;;;;;;;;;;;;;;4958874;28;19921;-71
2024/01/08 00:30:20;;;;;;;;;;;;;;;;;;4973110;28;19963;-70
2024/01/08 00:32:45;;;;;;;;;;;;;;;;;;4959209;28;20364;-68
2024/01/08 00:35:10;;;;;;;;;;;;;;;;;;4974422;28;20532;-69
2024/01/08 00:37:38;;;;;;;;;;;;;;;;;;4976217;28;19924;-68
2024/01/08 00:40:04;;;;;;;;;;;;;;;;;;4957500;28;20780;-68
2024/01/08 00:42:29;;;;;;;;;;;;;;;;;;4974547;28;20492;-69
2024/01/08 00:44:57;;;;;;;;;;;;;;;;;;4973919;28;19928;-69
2024/01/08 00:47:22;;;;;;;;;;;;;;;;;;4974806;28;19924;-69
2024/01/08 00:49:48;;;;;;;;;;;;;;;;;;4975175;28;20304;-68
2024/01/08 00:52:13;;;;;;;;;;;;;;;;;;4958297;28;19984;-68
2024/01/08 00:54:41;;;;;;;;;;;;;;;;;;4992013;28;20472;-69
2024/01/08 00:57:11;;;;;;;;;;;;;;;;;;4974505;28;19925;-68
2024/01/08 00:59:39;;;;;;;;;;;;;;;;;;4973898;28;19921;-69
2024/01/08 01:02:06;;;;;;;;;;;;;;;;;;4979485;28;20365;-69
2024/01/08 01:04:34;;;;;;;;;;;;;;;;;;4980803;28;19925;-70
2024/01/08 01:07:02;;;;;;;;;;;;;;;;;;4998610;28;20560;-68
2024/01/08 01:09:27;;;;;;;;;;;;;;;;;;4980071;28;19917;-69
2024/01/08 01:11:56;;;;;;;;;;;;;;;;;;4980725;28;19995;-69
2024/01/08 01:14:26;;;;;;;;;;;;;;;;;;4964259;28;21604;-70
2024/01/08 01:16:51;;;;;;;;;;;;;;;;;;4980926;28;19925;-68
2024/01/08 01:19:17;;;;;;;;;;;;;;;;;;4979604;28;20379;-70
2024/01/08 01:21:45;;;;;;;;;;;;;;;;;;4964768;28;19948;-70
2024/01/08 01:24:11;;;;;;;;;;;;;;;;;;4963447;28;19917;-69
2024/01/08 01:26:39;;;;;;;;;;;;;;;;;;4998971;28;19932;-70
2024/01/08 01:29:07;;;;;;;;;;;;;;;;;;4980500;28;19922;-69
2024/01/08 01:31:33;;;;;;;;;;;;;;;;;;4976962;28;19921;-72
2024/01/08 01:33:58;;;;;;;;;;;;;;;;;;5000201;28;19921;-71
2024/01/08 01:36:24;;;;;;;;;;;;;;;;;;4979911;28;20374;-69
2024/01/08 01:38:52;;;;;;;;;;;;;;;;;;4995810;28;20030;-70
2024/01/08 01:44:34;;;;;;;;;;;;;;;;;;4998524;28;19925;-71
2024/01/08 01:46:59;;;;;;;;;;;;;;;;;;4995901;28;19949;-72
2024/01/08 01:52:41;;;;;;;;;;;;;;;;;;4993218;28;19940;-70
2024/01/08 01:55:06;;;;;;;;;;;;;;;;;;4977170;28;19921;-72
2024/01/08 01:57:32;;;;;;;;;;;;;;;;;;4976880;28;20560;-70
2024/01/08 02:00:00;;;;;;;;;;;;;;;;;;4997414;28;22083;-72
2024/01/08 02:02:27;;;;;;;;;;;;;;;;;;4996384;28;20357;-72
2024/01/08 02:04:54;;;;;;;;;;;;;;;;;;4997854;28;19961;-71
2024/01/08 02:07:20;;;;;;;;;;;;;;;;;;4962308;28;19921;-71
2024/01/08 02:09:45;;;;;;;;;;;;;;;;;;4997751;28;19924;-70
2024/01/08 02:12:11;;;;;;;;;;;;;;;;;;4979674;28;19917;-71
2024/01/08 02:14:37;;;;;;;;;;;;;;;;;;4992897;28;19924;-72
2024/01/08 02:17:02;;;;;;;;;;;;;;;;;;4962742;28;19926;-72
2024/01/08 02:19:28;;;;;;;;;;;;;;;;;;4978800;28;20004;-72
2024/01/08 02:21:53;;;;;;;;;;;;;;;;;;4992996;28;20392;-71
2024/01/08 02:24:18;;;;;;;;;;;;;;;;;;4992076;28;20357;-70
2024/01/08 02:26:44;;;;;;;;;;;;;;;;;;4976536;28;19921;-71
2024/01/08 02:29:09;;;;;;;;;;;;;;;;;;4976009;28;19979;-72
2024/01/08 02:31:35;;;;;;;;;;;;;;;;;;4959424;28;20009;-71
2024/01/08 02:34:01;;;;;;;;;;;;;;;;;;4978714;28;19917;-71
2024/01/08 02:36:26;;;;;;;;;;;;;;;;;;4975998;28;19921;-72
2024/01/08 02:38:51;;;;;;;;;;;;;;;;;;4960207;28;19953;-72
2024/01/08 02:41:17;;;;;;;;;;;;;;;;;;4977857;28;19991;-73
2024/01/08 02:43:42;;;;;;;;;;;;;;;;;;4974259;28;20444;-74
2024/01/08 02:46:07;;;;;;;;;;;;;;;;;;4975482;28;20016;-72
2024/01/08 02:48:33;;;;;;;;;;;;;;;;;;4973986;28;19925;-72
2024/01/08 02:50:58;;;;;;;;;;;;;;;;;;4993394;28;20386;-73
2024/01/08 02:53:23;;;;;;;;;;;;;;;;;;4976223;28;19929;-74
2024/01/08 02:55:49;;;;;;;;;;;;;;;;;;4976540;28;19925;-72
2024/01/08 02:58:15;;;;;;;;;;;;;;;;;;4993150;28;21546;-72
2024/01/08 03:00:40;;;;;;;;;;;;;;;;;;4991910;28;20541;-73
2024/01/08 03:03:06;;;;;;;;;;;;;;;;;;4994429;28;19917;-71
2024/01/08 03:05:31;;;;;;;;;;;;;;;;;;4975065;28;20420;-73
2024/01/08 03:07:56;;;;;;;;;;;;;;;;;;4976437;28;20336;-73
2024/01/08 03:10:22;;;;;;;;;;;;;;;;;;4959044;28;19928;-71
2024/01/08 03:12:47;;;;;;;;;;;;;;;;;;4992723;28;20020;-72
2024/01/08 03:15:12;;;;;;;;;;;;;;;;;;4960610;28;19933;-72
2024/01/08 03:17:38;;;;;;;;;;;;;;;;;;4994852;28;21705;-72
2024/01/08 03:20:03;;;;;;;;;;;;;;;;;;4992294;28;20018;-73
2024/01/08 03:22:29;;;;;;;;;;;;;;;;;;4975662;28;20177;-74
2024/01/08 03:24:54;;;;;;;;;;;;;;;;;;4993076;28;19971;-72
2024/01/08 03:27:20;;;;;;;;;;;;;;;;;;4975678;28;20393;-72
2024/01/08 03:29:45;;;;;;;;;;;;;;;;;;4993937;28;19925;-72
2024/01/08 03:32:11;;;;;;;;;;;;;;;;;;4992121;28;20379;-74
2024/01/08 03:34:37;;;;;;;;;;;;;;;;;;4974276;28;19953;-71
2024/01/08 03:37:02;;;;;;;;;;;;;;;;;;4993223;28;20012;-74
2024/01/08 03:39:28;;;;;;;;;;;;;;;;;;4975313;28;19957;-73
2024/01/08 03:41:53;;;;;;;;;;;;;;;;;;4959674;28;19917;-73
2024/01/08 03:44:18;;;;;;;;;;;;;;;;;;4992646;28;20369;-74
2024/01/08 03:46:44;;;;;;;;;;;;;;;;;;4991092;28;19921;-72
2024/01/08 03:49:11;;;;;;;;;;;;;;;;;;4960055;28;19921;-71
2024/01/08 03:51:37;;;;;;;;;;;;;;;;;;4991519;28;20357;-72
2024/01/08 03:54:02;;;;;;;;;;;;;;;;;;4992823;28;19971;-74
2024/01/08 03:56:28;;;;;;;;;;;;;;;;;;4959600;28;20160;-73
2024/01/08 03:58:53;;;;;;;;;;;;;;;;;;4975174;28;19921;-73
2024/01/08 04:01:18;;;;;;;;;;;;;;;;;;4993841;28;20364;-72
2024/01/08 04:03:43;;;;;;;;;;;;;;;;;;4992445;28;20893;-72
2024/01/08 04:06:09;;;;;;;;;;;;;;;;;;4974943;28;19928;-74
2024/01/08 04:08:34;;;;;;;;;;;;;;;;;;4990585;28;19992;-73
2024/01/08 04:11:00;;;;;;;;;;;;;;;;;;4975303;28;19932;-73
2024/01/08 04:13:25;;;;;;;;;;;;;;;;;;4974493;28;19964;-71
2024/01/08 04:15:50;;;;;;;;;;;;;;;;;;4958676;28;19921;-79
2024/01/08 04:18:16;;;;;;;;;;;;;;;;;;4974496;28;19957;-76
2024/01/08 04:20:41;;;;;;;;;;;;;;;;;;4992867;28;20004;-72
2024/01/08 04:23:06;;;;;;;;;;;;;;;;;;4975201;28;19976;-72
2024/01/08 04:25:34;;;;;;;;;;;;;;;;;;4974755;28;19921;-75
2024/01/08 04:27:59;;;;;;;;;;;;;;;;;;4992010;28;19921;-76
2024/01/08 04:30:25;;;;;;;;;;;;;;;;;;4974399;28;19918;-76
2024/01/08 04:32:50;;;;;;;;;;;;;;;;;;4974219;28;19932;-74
2024/01/08 04:35:15;;;;;;;;;;;;;;;;;;4975861;28;19917;-75
2024/01/08 04:37:41;;;;;;;;;;;;;;;;;;4975641;28;19968;-74
2024/01/08 04:40:07;;;;;;;;;;;;;;;;;;4991804;28;20440;-75
2024/01/08 04:42:32;;;;;;;;;;;;;;;;;;4975480;28;19922;-76
2024/01/08 04:44:57;;;;;;;;;;;;;;;;;;4992527;28;20602;-75
2024/01/08 04:47:22;;;;;;;;;;;;;;;;;;4992842;28;21028;-71
2024/01/08 04:49:48;;;;;;;;;;;;;;;;;;4992674;28;19976;-74
2024/01/08 04:52:13;;;;;;;;;;;;;;;;;;4974289;28;19930;-71
2024/01/08 04:54:38;;;;;;;;;;;;;;;;;;4991654;28;20369;-73
2024/01/08 04:57:04;;;;;;;;;;;;;;;;;;4992775;28;19922;-75
2024/01/08 04:59:29;;;;;;;;;;;;;;;;;;4973853;28;19963;-74
2024/01/08 05:01:54;;;;;;;;;;;;;;;;;;4992383;28;20518;-76
2024/01/08 05:04:19;;;;;;;;;;;;;;;;;;4959168;28;20043;-74
2024/01/08 05:06:45;;;;;;;;;;;;;;;;;;4974709;28;20332;-75
2024/01/08 05:09:10;;;;;;;;;;;;;;;;;;4991237;28;19933;-77
2024/01/08 05:11:35;;;;;;;;;;;;;;;;;;4975410;28;20044;-77
2024/01/08 05:14:01;;;;;;;;;;;;;;;;;;4957533;28;19921;-77
2024/01/08 05:16:26;;;;;;;;;;;;;;;;;;4992939;28;19922;-77
2024/01/08 05:18:51;;;;;;;;;;;;;;;;;;4993362;28;19991;-76
2024/01/08 05:21:17;;;;;;;;;;;;;;;;;;4993357;28;20008;-75
2024/01/08 05:23:42;;;;;;;;;;;;;;;;;;4989217;28;19921;-77
2024/01/08 05:26:08;;;;;;;;;;;;;;;;;;4971532;28;20635;-76
2024/01/08 05:28:36;;;;;;;;;;;;;;;;;;4990322;28;19924;-77
2024/01/08 05:31:01;;;;;;;;;;;;;;;;;;4993296;28;19921;-76
2024/01/08 05:33:26;;;;;;;;;;;;;;;;;;4975487;28;19983;-76
2024/01/08 05:35:52;;;;;;;;;;;;;;;;;;4992933;28;20270;-74
2024/01/08 05:38:17;;;;;;;;;;;;;;;;;;4990055;28;20090;-75
2024/01/08 05:40:42;;;;;;;;;;;;;;;;;;4993143;28;19928;-75
2024/01/08 05:43:08;;;;;;;;;;;;;;;;;;4968204;28;19921;-75
2024/01/08 05:45:33;;;;;;;;;;;;;;;;;;4971236;28;19918;-76
2024/01/08 05:47:58;;;;;;;;;;;;;;;;;;4962880;28;19917;-75
2024/01/08 05:50:30;;;;;;;;;;;;;;;;;;4995724;28;21548;-75
2024/01/08 05:52:55;;;;;;;;;;;;;;;;;;4998159;28;19929;-75
2024/01/08 05:55:20;;;;;;;;;;;;;;;;;;4998570;28;19964;-75
2024/01/08 05:57:46;;;;;;;;;;;;;;;;;;4980360;28;19917;-75
2024/01/08 06:00:11;;;;;;;;;;;;;;;;;;4960808;28;20000;-74
2024/01/08 06:02:37;;;;;;;;;;;;;;;;;;4960958;28;19921;-74
2024/01/08 06:05:02;;;;;;;;;;;;;;;;;;4961506;28;19917;-74
2024/01/08 06:07:27;;;;;;;;;;;;;;;;;;4963530;28;20013;-74
2024/01/08 06:09:52;;;;;;;;;;;;;;;;;;4976564;28;19990;-74
2024/01/08 06:12:18;;;;;;;;;;;;;;;;;;4978515;28;20648;-74
2024/01/08 06:14:43;;;;;;;;;;;;;;;;;;4979080;28;19932;-74
2024/01/08 06:17:11;;;;;;;;;;;;;;;;;;4964370;28;19928;-74
2024/01/08 06:19:36;;;;;;;;;;;;;;;;;;4963226;28;20391;-74
2024/01/08 06:22:02;;;;;;;;;;;;;;;;;;4975740;28;19917;-74
2024/01/08 06:24:27;;;;;;;;;;;;;;;;;;4996935;28;19928;-74
2024/01/08 06:26:52;;;;;;;;;;;;;;;;;;4996164;28;19972;-74
2024/01/08 06:32:34;;;;;;;;;;;;;;;;;;4994715;28;19996;-73
2024/01/08 06:35:00;;;;;;;;;;;;;;;;;;4978318;28;20368;-74
2024/01/08 06:37:25;;;;;;;;;;;;;;;;;;4964862;28;19925;-73
2024/01/08 06:39:51;;;;;;;;;;;;;;;;;;4963705;28;21874;-73
2024/01/08 06:42:16;;;;;;;;;;;;;;;;;;4980195;28;19917;-73
2024/01/08 06:44:41;;;;;;;;;;;;;;;;;;4994991;28;20410;-73
2024/01/08 06:47:07;;;;;;;;;;;;;;;;;;4980568;28;19921;-73
2024/01/08 06:49:32;;;;;;;;;;;;;;;;;;4964337;28;19918;-74
2024/01/08 06:51:57;;;;;;;;;;;;;;;;;;4979335;28;19925;-71
2024/01/08 06:54:23;;;;;;;;;;;;;;;;;;4979008;28;19926;-74
2024/01/08 06:56:48;;;;;;;;;;;;;;;;;;4961590;28;20380;-72
2024/01/08 06:59:15;;;;;;;;;;;;;;;;;;4978458;28;19948;-72
2024/01/08 07:01:41;;;;;;;;;;;;;;;;;;4996819;28;20409;-72
2024/01/08 07:04:06;;;;;;;;;;;;;;;;;;4971040;28;19943;-73
2024/01/08 07:06:32;;;;;;;;;;;;;;;;;;4976039;28;19922;-74
2024/01/08 07:09:00;;;;;;;;;;;;;;;;;;4978936;28;19985;-74
2024/01/08 07:11:25;;;;;;;;;;;;;;;;;;4978452;28;20274;-74
2024/01/08 07:13:53;;;;;;;;;;;;;;;;;;4961982;28;19962;-74
2024/01/08 07:16:18;;;;;;;;;;;;;;;;;;4978779;28;20004;-74
2024/01/08 07:18:43;;;;;;;;;;;;;;;;;;4961811;28;19928;-74
2024/01/08 07:21:16;;;;;;;;;;;;;;;;;;4962481;28;19983;-74
2024/01/08 07:23:42;;;;;;;;;;;;;;;;;;4978710;28;19928;-72
2024/01/08 07:26:09;;;;;;;;;;;;;;;;;;4978209;28;19922;-74
2024/01/08 07:28:37;;;;;;;;;;;;;;;;;;4994599;28;19949;-73
2024/01/08 07:31:08;;;;;;;;;;;;;;;;;;4978323;28;20269;-74
2024/01/08 07:33:33;;;;;;;;;;;;;;;;;;4976879;28;19917;-74
2024/01/08 07:35:59;;;;;;;;;;;;;;;;;;4995058;28;19922;-72
2024/01/08 07:38:27;;;;;;;;;;;;;;;;;;4993613;28;19988;-72
2024/01/08 07:40:52;;;;;;;;;;;;;;;;;;4976615;28;19922;-73
2024/01/08 07:43:18;;;;;;;;;;;;;;;;;;4977917;28;19972;-72
2024/01/08 07:45:48;;;;;;;;;;;;;;;;;;4977872;28;20324;-70
2024/01/08 07:48:19;;;;;;;;;;;;;;;;;;4976383;28;19917;-72
2024/01/08 07:50:47;;;;;;;;;;;;;;;;;;4992279;28;19921;-72
2024/01/08 07:53:12;;;;;;;;;;;;;;;;;;4959444;28;19935;-72
2024/01/08 07:55:40;;;;;;;;;;;;;;;;;;4958723;28;19921;-72
2024/01/08 07:58:05;;;;;;;;;;;;;;;;;;4977103;28;19976;-72
2024/01/08 08:00:33;;;;;;;;;;;;;;;;;;4975972;28;19922;-72
2024/01/08 08:02:58;;;;;;;;;;;;;;;;;;4974914;28;20217;-72
2024/01/08 08:05:30;;;;;;;;;;;;;;;;;;4959936;28;19924;-73
2024/01/08 08:07:58;;;;;;;;;;;;;;;;;;4960735;28;20468;-73
2024/01/08 08:10:26;;;;;;;;;;;;;;;;;;4975223;28;20020;-72
2024/01/08 08:12:52;;;;;;;;;;;;;;;;;;4958809;28;20321;-72
2024/01/08 08:15:20;;;;;;;;;;;;;;;;;;4992470;28;20246;-73
2024/01/08 08:17:50;;;;;;;;;;;;;;;;;;4976764;28;19956;-72
2024/01/08 08:20:16;;;;;;;;;;;;;;;;;;4975371;28;19924;-72
2024/01/08 08:22:44;;;;;;;;;;;;;;;;;;4975808;28;20407;-68
2024/01/08 08:25:12;;;;;;;;;;;;;;;;;;4961878;28;19921;-73
2024/01/08 08:27:42;;;;;;;;;;;;;;;;;;4992097;28;19921;-72
2024/01/08 08:30:16;;;;;;;;;;;;;;;;;;4972797;28;19956;-72
2024/01/08 08:32:44;;;;;;;;;;;;;;;;;;4960182;28;20680;-73
2024/01/08 08:35:12;;;;;;;;;;;;;;;;;;4994185;28;19926;-72
2024/01/08 08:37:37;;;;;;;;;;;;;;;;;;4992599;28;20400;-73
2024/01/08 08:40:03;;;;;;;;;;;;;;;;;;4992185;28;19940;-71
2024/01/08 08:42:28;;;;;;;;;;;;;;;;;;4959125;28;20384;-73
2024/01/08 08:44:53;;;;;;;;;;;;;;;;;;4976588;28;19955;-72
2024/01/08 08:47:18;;;;;;;;;;;;;;;;;;4958561;28;20399;-73
2024/01/08 08:49:44;;;;;;;;;;;;;;;;;;4975233;28;19971;-73
2024/01/08 08:52:09;;;;;;;;;;;;;;;;;;4991588;28;19928;-72
2024/01/08 08:54:37;;;;;;;;;;;;;;;;;;4975474;28;19928;-71
2024/01/08 08:57:05;;;;;;;;;;;;;;;;;;4960127;28;19932;-71
2024/01/08 08:59:37;;;;;;;;;;;;;;;;;;4959839;28;19921;-72
2024/01/08 09:02:02;;;;;;;;;;;;;;;;;;4992316;28;19928;-73
2024/01/08 09:04:27;;;;;;;;;;;;;;;;;;4992582;28;19929;-73
2024/01/08 09:06:52;;;;;;;;;;;;;;;;;;4976727;28;19944;-72
2024/01/08 09:09:18;;;;;;;;;;;;;;;;;;4957406;28;19922;-73
2024/01/08 09:11:46;;;;;;;;;;;;;;;;;;4959017;28;21005;-71
2024/01/08 09:14:11;;;;;;;;;;;;;;;;;;4975044;28;19917;-73
2024/01/08 09:16:38;;;;;;;;;;;;;;;;;;4974709;28;20381;-72
2024/01/08 09:19:03;;;;;;;;;;;;;;;;;;4976457;28;19924;-71
2024/01/08 09:21:29;;;;;;;;;;;;;;;;;;4973722;28;19917;-72
2024/01/08 09:23:56;;;;;;;;;;;;;;;;;;4978277;28;20452;-73
2024/01/08 09:26:25;;;;;;;;;;;;;;;;;;4997425;28;19921;-74
2024/01/08 09:28:53;;;;;;;;;;;;;;;;;;4978755;28;20781;-73
2024/01/08 09:31:20;;;;;;;;;;;;;;;;;;4979434;28;19953;-73
2024/01/08 09:33:47;;;;;;;;;;;;;;;;;;4979822;28;19917;-71
2024/01/08 09:36:12;;;;;;;;;;;;;;;;;;4978087;28;19949;-73
2024/01/08 09:38:37;;;;;;;;;;;;;;;;;;4961085;28;19994;-71
2024/01/08 09:41:06;;;;;;;;;;;;;;;;;;4979679;28;20384;-71
2024/01/08 09:43:32;;;;;;;;;;;;;;;;;;4979264;28;19917;-72
2024/01/08 09:45:57;;;;;;;;;;;;;;;;;;4996586;28;19964;-72
2024/01/08 09:48:25;;;;;;;;;;;;;;;;;;4979230;28;19924;-73
2024/01/08 09:50:50;;;;;;;;;;;;;;;;;;4979181;28;20077;-72
2024/01/08 09:53:15;;;;;;;;;;;;;;;;;;4962850;28;20428;-70
2024/01/08 09:55:41;;;;;;;;;;;;;;;;;;4978595;28;19922;-75
2024/01/08 09:58:06;;;;;;;;;;;;;;;;;;4997770;28;20031;-72
2024/01/08 10:00:35;;;;;;;;;;;;;;;;;;4995414;28;20022;-73
2024/01/08 10:03:00;;;;;;;;;;;;;;;;;;4963944;28;20011;-70
2024/01/08 10:05:25;;;;;;;;;;;;;;;;;;4978853;28;20012;-73
2024/01/08 10:07:51;;;;;;;;;;;;;;;;;;4979255;28;19914;-72
2024/01/08 10:10:19;;;;;;;;;;;;;;;;;;4977119;28;19921;-72
2024/01/08 10:12:47;;;;;;;;;;;;;;;;;;4996208;28;19948;-71
2024/01/08 10:15:18;;;;;;;;;;;;;;;;;;4977591;28;20345;-72
2024/01/08 10:17:43;;;;;;;;;;;;;;;;;;4996775;28;20051;-71
2024/01/08 10:20:09;;;;;;;;;;;;;;;;;;4994090;28;19956;-72
2024/01/08 10:22:34;;;;;;;;;;;;;;;;;;4974426;28;19921;-71
2024/01/08 10:24:59;;;;;;;;;;;;;;;;;;4978883;28;20869;-71
2024/01/08 10:27:27;;;;;;;;;;;;;;;;;;4995092;28;19995;-71
2024/01/08 10:29:52;;;;;;;;;;;;;;;;;;4959623;28;19952;-72
2024/01/08 10:32:17;;;;;;;;;;;;;;;;;;4977724;28;20369;-70
2024/01/08 10:34:44;;;;;;;;;;;;;;;;;;4994561;28;20739;-72
2024/01/08 10:37:12;;;;;;;;;;;;;;;;;;4979506;28;19948;-71
2024/01/08 10:39:40;;;;;;;;;;;;;;;;;;4977354;28;21563;-72
2024/01/08 10:42:05;;;;;;;;;;;;;;;;;;4962354;28;20107;-72
2024/01/08 10:44:33;;;;;;;;;;;;;;;;;;4995819;28;19949;-70
2024/01/08 10:47:01;;;;;;;;;;;;;;;;;;4978265;28;19921;-71
2024/01/08 10:49:29;;;;;;;;;;;;;;;;;;4978560;28;19928;-73
2024/01/08 10:51:58;;;;;;;;;;;;;;;;;;4961776;28;19925;-72
2024/01/08 10:54:24;;;;;;;;;;;;;;;;;;4995155;28;19925;-72
2024/01/08 10:56:49;;;;;;;;;;;;;;;;;;4978825;28;20395;-70
2024/01/08 10:59:21;;;;;;;;;;;;;;;;;;4976879;28;21584;-71
2024/01/08 11:01:49;;;;;;;;;;;;;;;;;;4978603;28;20386;-70
2024/01/08 11:04:17;;;;;;;;;;;;;;;;;;4977245;28;19928;-70
2024/01/08 11:06:42;;;;;;;;;;;;;;;;;;4978013;28;19921;-72
2024/01/08 11:09:10;;;;;;;;;;;;;;;;;;4976964;28;19922;-69
2024/01/08 11:11:35;;;;;;;;;;;;;;;;;;4962914;28;20016;-72
2024/01/08 11:14:06;;;;;;;;;;;;;;;;;;4995829;28;19952;-72
2024/01/08 11:16:33;;;;;;;;;;;;;;;;;;4961378;28;19987;-71
2024/01/08 11:18:59;;;;;;;;;;;;;;;;;;4977311;28;19921;-71
2024/01/08 11:21:27;;;;;;;;;;;;;;;;;;4998347;28;20210;-71
2024/01/08 11:23:53;;;;;;;;;;;;;;;;;;4977266;28;20047;-69
2024/01/08 11:26:25;;;;;;;;;;;;;;;;;;4977208;28;20426;-71
2024/01/08 11:28:53;;;;;;;;;;;;;;;;;;4977481;28;19929;-71
2024/01/08 11:31:20;;;;;;;;;;;;;;;;;;4960095;28;19932;-72
2024/01/08 11:33:46;;;;;;;;;;;;;;;;;;4961327;28;19936;-69
2024/01/08 11:36:11;;;;;;;;;;;;;;;;;;4977148;28;19921;-73
2024/01/08 11:38:37;;;;;;;;;;;;;;;;;;4975734;28;20466;-71
2024/01/08 11:41:03;;;;;;;;;;;;;;;;;;4960777;28;19917;-71
2024/01/08 11:43:31;;;;;;;;;;;;;;;;;;4975556;28;19960;-71
2024/01/08 11:45:59;;;;;;;;;;;;;;;;;;4977098;28;20069;-64
2024/01/08 11:48:27;;;;;;;;;;;;;;;;;;4976643;28;19917;-69
2024/01/08 11:50:52;;;;;;;;;;;;;;;;;;4974465;28;19913;-70
2024/01/08 11:53:17;;;;;;;;;;;;;;;;;;4959515;28;19925;-71
2024/01/08 11:55:43;;;;;;;;;;;;;;;;;;4976135;28;19913;-71
2024/01/08 11:58:13;;;;;;;;;;;;;;;;;;4996018;28;19923;-71
2024/01/08 12:00:42;;;;;;;;;;;;;;;;;;4976488;28;20396;-73
2024/01/08 12:03:08;;;;;;;;;;;;;;;;;;4960453;28;19921;-70
2024/01/08 12:05:34;;;;;;;;;;;;;;;;;;4958495;28;19917;-71
2024/01/08 12:07:59;;;;;;;;;;;;;;;;;;4974990;28;19918;-67
2024/01/08 12:10:27;;;;;;;;;;;;;;;;;;4975956;28;19921;-72
2024/01/08 12:12:55;;;;;;;;;;;;;;;;;;4976971;28;20285;-67
2024/01/08 12:15:23;;;;;;;;;;;;;;;;;;4958582;28;20039;-70
2024/01/08 12:17:49;;;;;;;;;;;;;;;;;;4992745;28;19925;-69
2024/01/08 12:20:17;;;;;;;;;;;;;;;;;;4994574;28;19964;-71
2024/01/08 12:22:45;;;;;;;;;;;;;;;;;;4995110;28;19921;-72
2024/01/08 12:25:12;;;;;;;;;;;;;;;;;;4977983;28;19917;-69
2024/01/08 12:27:38;;;;;;;;;;;;;;;;;;4994491;28;19913;-70
2024/01/08 12:30:07;;;;;;;;;;;;;;;;;;4992648;28;19922;-71
2024/01/08 12:32:35;;;;;;;;;;;;;;;;;;4976725;28;19917;-68
2024/01/08 12:35:06;;;;;;;;;;;;;;;;;;4976022;28;19921;-69
2024/01/08 12:37:32;;;;;;;;;;;;;;;;;;4992236;28;19928;-69
2024/01/08 12:39:58;;;;;;;;;;;;;;;;;;4976293;28;19921;-69
2024/01/08 12:42:24;;;;;;;;;;;;;;;;;;4975247;28;19932;-69
2024/01/08 12:44:55;;;;;;;;;;;;;;;;;;4959838;28;19921;-69
2024/01/08 12:47:20;;;;;;;;;;;;;;;;;;4960091;28;19921;-68
2024/01/08 12:49:48;;;;;;;;;;;;;;;;;;4959630;28;20055;-70
2024/01/08 12:52:13;;;;;;;;;;;;;;;;;;4974880;28;20565;-70
2024/01/08 12:54:41;;;;;;;;;;;;;;;;;;4959369;28;19964;-70
2024/01/08 12:57:06;;;;;;;;;;;;;;;;;;4989346;28;19921;-71
2024/01/08 12:59:35;;;;;;;;;;;;;;;;;;4974126;28;19924;-70
2024/01/08 13:02:00;;;;;;;;;;;;;;;;;;4959387;28;20342;-70
2024/01/08 13:04:28;;;;;;;;;;;;;;;;;;4976085;28;19945;-72
2024/01/08 13:06:57;;;;;;;;;;;;;;;;;;4973591;28;19921;-70
2024/01/08 13:09:22;;;;;;;;;;;;;;;;;;4974676;28;19921;-72
2024/01/08 13:11:50;;;;;;;;;;;;;;;;;;4958408;28;20293;-74
2024/01/08 13:14:18;;;;;;;;;;;;;;;;;;4973722;28;19921;-71
2024/01/08 13:16:47;;;;;;;;;;;;;;;;;;4974009;28;20018;-69
2024/01/08 13:19:12;;;;;;;;;;;;;;;;;;4975567;28;20020;-69
2024/01/08 13:21:41;;;;;;;;;;;;;;;;;;4991535;28;19921;-70
2024/01/08 13:24:10;;;;;;;;;;;;;;;;;;4971489;28;20025;-69
2024/01/08 13:26:38;;;;;;;;;;;;;;;;;;4957971;28;19975;-69
2024/01/08 13:29:06;;;;;;;;;;;;;;;;;;4973408;28;19917;-71
2024/01/08 13:31:31;;;;;;;;;;;;;;;;;;4974754;28;19923;-69
2024/01/08 13:33:56;;;;;;;;;;;;;;;;;;4994544;28;20000;-70
2024/01/08 13:36:22;;;;;;;;;;;;;;;;;;4958894;28;20496;-70
2024/01/08 13:38:47;;;;;;;;;;;;;;;;;;4974259;28;19979;-71
2024/01/08 13:41:12;;;;;;;;;;;;;;;;;;4975299;28;19948;-70
2024/01/08 13:43:37;;;;;;;;;;;;;;;;;;4957614;28;19928;-70
2024/01/08 13:46:03;;;;;;;;;;;;;;;;;;4975751;28;19921;-70
2024/01/08 13:48:28;;;;;;;;;;;;;;;;;;4975235;28;19956;-70
2024/01/08 13:50:54;;;;;;;;;;;;;;;;;;4974826;28;19918;-69
2024/01/08 13:53:20;;;;;;;;;;;;;;;;;;4969959;28;20438;-70
2024/01/08 13:55:45;;;;;;;;;;;;;;;;;;4971601;28;19918;-70
2024/01/08 13:58:11;;;;;;;;;;;;;;;;;;4972828;28;20004;-70
2024/01/08 14:00:39;;;;;;;;;;;;;;;;;;4971077;28;19917;-70
2024/01/08 14:03:07;;;;;;;;;;;;;;;;;;4973308;28;19977;-71
2024/01/08 14:05:37;;;;;;;;;;;;;;;;;;4974065;28;20090;-71
2024/01/08 14:08:03;;;;;;;;;;;;;;;;;;4972010;28;19969;-71
2024/01/08 14:10:28;;;;;;;;;;;;;;;;;;4973907;28;19930;-71
2024/01/08 14:12:55;;;;;;;;;;;;;;;;;;4975436;28;20099;-71
2024/01/08 14:15:24;;;;;;;;;;;;;;;;;;4976475;28;19947;-70
2024/01/08 14:17:52;;;;;;;;;;;;;;;;;;4975377;28;19954;-70
2024/01/08 14:20:20;;;;;;;;;;;;;;;;;;4974391;28;19966;-71
2024/01/08 14:22:46;;;;;;;;;;;;;;;;;;4974385;28;20020;-69
2024/01/08 14:25:15;;;;;;;;;;;;;;;;;;4958445;28;19918;-70
2024/01/08 14:27:41;;;;;;;;;;;;;;;;;;4975052;28;19929;-72
2024/01/08 14:30:06;;;;;;;;;;;;;;;;;;4958651;28;20281;-71
2024/01/08 14:32:34;;;;;;;;;;;;;;;;;;4976247;28;19928;-70
2024/01/08 14:35:07;;;;;;;;;;;;;;;;;;4973922;28;20372;-71
2024/01/08 14:37:32;;;;;;;;;;;;;;;;;;4957958;28;21448;-71
2024/01/08 14:40:00;;;;;;;;;;;;;;;;;;4974479;28;20021;-72
2024/01/08 14:42:26;;;;;;;;;;;;;;;;;;4958700;28;19929;-69
2024/01/08 14:44:51;;;;;;;;;;;;;;;;;;4957765;28;19918;-70
2024/01/08 14:47:21;;;;;;;;;;;;;;;;;;4975307;28;19922;-70
2024/01/08 14:49:48;;;;;;;;;;;;;;;;;;4976339;28;19922;-74
2024/01/08 14:52:16;;;;;;;;;;;;;;;;;;4979537;28;19960;-73
2024/01/08 14:54:42;;;;;;;;;;;;;;;;;;4978177;28;19925;-69
2024/01/08 14:57:10;;;;;;;;;;;;;;;;;;4978856;28;20468;-70
2024/01/08 14:59:35;;;;;;;;;;;;;;;;;;4977160;28;19979;-70
2024/01/08 15:02:01;;;;;;;;;;;;;;;;;;4963471;28;19929;-71
2024/01/08 15:04:29;;;;;;;;;;;;;;;;;;4976060;28;19917;-71
2024/01/08 15:07:00;;;;;;;;;;;;;;;;;;4978715;28;19964;-68
2024/01/08 15:09:25;;;;;;;;;;;;;;;;;;4977734;28;19914;-70
2024/01/08 15:11:51;;;;;;;;;;;;;;;;;;4978932;28;19924;-71
2024/01/08 15:14:17;;;;;;;;;;;;;;;;;;4977827;28;19924;-69
2024/01/08 15:16:42;;;;;;;;;;;;;;;;;;4996103;28;20028;-69
2024/01/08 15:19:07;;;;;;;;;;;;;;;;;;4992925;28;20278;-69
2024/01/08 15:21:32;;;;;;;;;;;;;;;;;;4976195;28;20322;-71
2024/01/08 15:23:58;;;;;;;;;;;;;;;;;;4978278;28;20301;-71
2024/01/08 15:26:23;;;;;;;;;;;;;;;;;;4979285;28;19913;-73
2024/01/08 15:28:48;;;;;;;;;;;;;;;;;;4978233;28;20424;-71
2024/01/08 15:31:13;;;;;;;;;;;;;;;;;;4961399;28;19932;-71
2024/01/08 15:33:39;;;;;;;;;;;;;;;;;;4979183;28;19917;-71
2024/01/08 15:36:10;;;;;;;;;;;;;;;;;;4963139;28;19967;-71
2024/01/08 15:38:38;;;;;;;;;;;;;;;;;;4962431;28;20148;-71
2024/01/08 15:41:04;;;;;;;;;;;;;;;;;;4962566;28;19921;-72
2024/01/08 15:43:29;;;;;;;;;;;;;;;;;;4994891;28;20222;-70
2024/01/08 15:45:57;;;;;;;;;;;;;;;;;;4962634;28;19920;-72
2024/01/08 15:48:23;;;;;;;;;;;;;;;;;;4978493;28;19913;-70
2024/01/08 15:50:53;;;;;;;;;;;;;;;;;;4978581;28;19924;-71
2024/01/08 15:53:21;;;;;;;;;;;;;;;;;;4976195;28;19987;-72
2024/01/08 15:55:46;;;;;;;;;;;;;;;;;;4962955;28;20238;-71
2024/01/08 15:58:15;;;;;;;;;;;;;;;;;;4979007;28;19928;-72
2024/01/08 16:00:45;;;;;;;;;;;;;;;;;;4962254;28;20403;-71
2024/01/08 16:03:11;;;;;;;;;;;;;;;;;;4962654;28;20043;-72
2024/01/08 16:05:36;;;;;;;;;;;;;;;;;;4979718;28;19995;-71
2024/01/08 16:08:04;;;;;;;;;;;;;;;;;;4979552;28;19921;-72
2024/01/08 16:10:32;;;;;;;;;;;;;;;;;;4977635;28;19922;-70
2024/01/08 16:13:03;;;;;;;;;;;;;;;;;;4978704;28;19922;-71
2024/01/08 16:15:30;;;;;;;;;;;;;;;;;;4978710;28;20016;-72
2024/01/08 16:17:59;;;;;;;;;;;;;;;;;;4962023;28;19948;-71
2024/01/08 16:20:27;;;;;;;;;;;;;;;;;;4976299;28;19917;-71
2024/01/08 16:22:52;;;;;;;;;;;;;;;;;;4995379;28;20257;-72
2024/01/08 16:25:17;;;;;;;;;;;;;;;;;;4975700;28;20317;-71
2024/01/08 16:27:43;;;;;;;;;;;;;;;;;;4973861;28;19922;-70
2024/01/08 16:30:08;;;;;;;;;;;;;;;;;;4977189;28;20274;-72
2024/01/08 16:32:37;;;;;;;;;;;;;;;;;;4959877;28;19917;-68
2024/01/08 16:35:04;;;;;;;;;;;;;;;;;;4976151;28;20376;-65
2024/01/08 16:37:32;;;;;;;;;;;;;;;;;;4970840;28;20067;-68
2024/01/08 16:39:57;;;;;;;;;;;;;;;;;;4971080;28;19917;-68
2024/01/08 16:42:22;;;;;;;;;;;;;;;;;;4973679;28;20744;-68
2024/01/08 16:44:48;;;;;;;;;;;;;;;;;;4984669;28;19921;-68
2024/01/08 16:47:20;;;;;;;;;;;;;;;;;;4972142;28;19944;-69
2024/01/08 16:49:45;;;;;;;;;;;;;;;;;;4991179;28;20937;-69